Time,TemperatureF,DewpointF,PressureIn,WindDirection,WindDirectionDegrees,WindSpeedMPH,WindSpeedGustMPH,Humidity,HourlyPrecipIn,Conditions,Clouds,dailyrainin,SoftwareType,DateUTC
2013-02-03 00:02:00,27.0,25.0,30.04,North,0,0.0,-999.0,92,-99.99,,,-99.99,,2013-02-03 06:02:00,
2013-02-03 00:11:00,27.0,25.0,30.04,North,0,0.0,-999.0,92,-99.99,,,-99.99,,2013-02-03 06:11:00,
2013-02-03 00:21:00,27.0,25.0,30.03,North,0,0.0,-999.0,92,-99.99,,,-99.99,,2013-02-03 06:21:00,
2013-02-03 00:32:00,27.0,23.0,30.03,South,180,5.0,-999.0,86,-99.99,,,-99.99,,2013-02-03 06:32:00,
2013-02-03 00:41:00,25.0,23.0,30.03,South,180,5.0,-999.0,92,-99.99,,,-99.99,,2013-02-03 06:41:00,
2013-02-03 00:52:00,27.0,25.0,30.02,North,0,0.0,-999.0,92,-99.99,,,-99.99,,2013-02-03 06:52:00,
2013-02-03 01:01:00,27.0,25.0,30.02,North,0,0.0,-999.0,92,-99.99,,,-99.99,,2013-02-03 07:01:00,
2013-02-03 01:11:00,27.0,25.0,30.02,North,0,0.0,-999.0,92,-99.99,,,-99.99,,2013-02-03 07:11:00,
2013-02-03 01:21:00,28.0,25.0,30.01,SSW,200,6.0,-999.0,86,-99.99,,,-99.99,,2013-02-03 07:21:00,
2013-02-03 01:31:00,28.0,27.0,30.01,SSW,210,5.0,-999.0,92,-99.99,,,-99.99,,2013-02-03 07:31:00,
2013-02-03 01:41:00,28.0,27.0,30.01,SW,220,6.0,-999.0,92,-99.99,,,-99.99,,2013-02-03 07:41:00,
2013-02-03 01:52:00,28.0,27.0,30.02,WSW,240,8.0,-999.0,92,-99.99,,,-99.99,,2013-02-03 07:52:00,
2013-02-03 02:01:00,28.0,27.0,30.02,WSW,240,8.0,-999.0,92,-99.99,,,-99.99,,2013-02-03 08:01:00,
2013-02-03 02:11:00,28.0,27.0,30.02,WSW,240,8.0,-999.0,92,-99.99,,,-99.99,,2013-02-03 08:11:00,
2013-02-03 02:22:00,28.0,27.0,30.02,WSW,250,9.0,-999.0,92,-99.99,,,-99.99,,2013-02-03 08:22:00,
2013-02-03 02:32:00,28.0,27.0,30.02,WSW,250,10.0,-999.0,92,-99.99,,,-99.99,,2013-02-03 08:32:00,
2013-02-03 02:41:00,28.0,27.0,30.02,WSW,250,10.0,-999.0,92,-99.99,,,-99.99,,2013-02-03 08:41:00,
2013-02-03 02:52:00,28.0,27.0,30.02,WSW,250,10.0,-999.0,92,-99.99,,,-99.99,,2013-02-03 08:52:00,
2013-02-03 03:02:00,28.0,27.0,30.02,West,260,12.0,-999.0,92,-99.99,,,-99.99,,2013-02-03 09:02:00,
2013-02-03 03:11:00,28.0,27.0,30.02,West,260,12.0,-999.0,92,-99.99,,,-99.99,,2013-02-03 09:11:00,
2013-02-03 03:21:00,30.0,27.0,30.01,West,260,13.0,-999.0,86,-99.99,,,-99.99,,2013-02-03 09:21:00,
2013-02-03 03:31:00,30.0,27.0,30.01,West,270,12.0,-999.0,86,-99.99,,,-99.99,,2013-02-03 09:31:00,
2013-02-03 03:41:00,30.0,27.0,30.01,West,270,12.0,-999.0,86,-99.99,,,-99.99,,2013-02-03 09:41:00,
2013-02-03 03:52:00,30.0,27.0,30.01,West,270,12.0,-999.0,86,-99.99,,,-99.99,,2013-02-03 09:52:00,
2013-02-03 04:01:00,30.0,27.0,30.01,West,270,12.0,-999.0,86,-99.99,,,-99.99,,2013-02-03 10:01:00,
2013-02-03 04:11:00,30.0,27.0,30.01,West,270,12.0,-999.0,86,-99.99,,,-99.99,,2013-02-03 10:11:00,
2013-02-03 04:21:00,30.0,27.0,30.02,West,280,14.0,-999.0,86,-99.99,,,-99.99,,2013-02-03 10:21:00,
2013-02-03 04:31:00,30.0,27.0,30.02,West,280,12.0,20.0,86,-99.99,,,-99.99,,2013-02-03 10:31:00,
2013-02-03 04:42:00,32.0,27.0,30.03,West,280,13.0,-999.0,80,-99.99,,,-99.99,,2013-02-03 10:42:00,
2013-02-03 04:52:00,32.0,27.0,30.03,West,280,14.0,22.0,80,-99.99,,,-99.99,,2013-02-03 10:52:00,
2013-02-03 05:02:00,32.0,27.0,30.03,West,280,13.0,-999.0,80,-99.99,,,-99.99,,2013-02-03 11:02:00,
2013-02-03 05:11:00,32.0,27.0,30.03,West,280,13.0,-999.0,80,-99.99,,,-99.99,,2013-02-03 11:11:00,
2013-02-03 05:22:00,30.0,27.0,30.03,West,280,12.0,-999.0,86,-99.99,,,-99.99,,2013-02-03 11:22:00,
2013-02-03 05:32:00,30.0,25.0,30.03,WNW,290,10.0,-999.0,80,-99.99,,,-99.99,,2013-02-03 11:32:00,
2013-02-03 05:41:00,30.0,25.0,30.03,WNW,290,13.0,-999.0,80,-99.99,,,-99.99,,2013-02-03 11:41:00,
2013-02-03 05:52:00,30.0,25.0,30.04,WNW,290,13.0,18.0,80,-99.99,,,-99.99,,2013-02-03 11:52:00,
2013-02-03 06:02:00,30.0,25.0,30.04,West,280,13.0,18.0,80,-99.99,,,-99.99,,2013-02-03 12:02:00,
2013-02-03 06:11:00,30.0,25.0,30.04,West,280,13.0,18.0,80,-99.99,,,-99.99,,2013-02-03 12:11:00,
2013-02-03 06:22:00,30.0,25.0,30.04,West,280,13.0,18.0,80,-99.99,,,-99.99,,2013-02-03 12:22:00,
2013-02-03 06:32:00,30.0,21.0,30.06,WNW,290,20.0,25.0,68,-99.99,,,-99.99,,2013-02-03 12:32:00,
2013-02-03 06:42:00,30.0,21.0,30.06,WNW,290,18.0,25.0,68,-99.99,,,-99.99,,2013-02-03 12:42:00,
2013-02-03 06:53:00,30.0,21.0,30.07,WNW,290,17.0,-999.0,68,-99.99,,,-99.99,,2013-02-03 12:53:00,
2013-02-03 07:03:00,30.0,21.0,30.07,WNW,290,17.0,-999.0,68,-99.99,,,-99.99,,2013-02-03 13:03:00,
2013-02-03 07:11:00,30.0,21.0,30.07,WNW,290,17.0,-999.0,68,-99.99,,,-99.99,,2013-02-03 13:11:00,
2013-02-03 07:21:00,30.0,21.0,30.07,WNW,290,17.0,-999.0,68,-99.99,,,-99.99,,2013-02-03 13:21:00,
2013-02-03 07:32:00,30.0,21.0,30.10,WNW,300,21.0,27.0,68,-99.99,,,-99.99,,2013-02-03 13:32:00,
2013-02-03 07:42:00,28.0,19.0,30.10,WNW,300,17.0,25.0,68,-99.99,,,-99.99,,2013-02-03 13:42:00,
2013-02-03 07:52:00,28.0,19.0,30.10,WNW,300,17.0,25.0,68,-99.99,,,-99.99,,2013-02-03 13:52:00,
2013-02-03 08:02:00,28.0,18.0,30.12,NW,310,20.0,31.0,63,-99.99,,,-99.99,,2013-02-03 14:02:00,
2013-02-03 08:11:00,28.0,18.0,30.12,NW,310,20.0,31.0,63,-99.99,,,-99.99,,2013-02-03 14:11:00,
2013-02-03 08:21:00,27.0,18.0,30.13,NW,320,21.0,27.0,68,-99.99,,,-99.99,,2013-02-03 14:21:00,
2013-02-03 08:32:00,27.0,16.0,30.14,NW,320,17.0,25.0,63,-99.99,,,-99.99,,2013-02-03 14:32:00,
2013-02-03 08:42:00,27.0,14.0,30.15,NW,310,17.0,30.0,58,-99.99,,,-99.99,,2013-02-03 14:42:00,
2013-02-03 08:52:00,27.0,14.0,30.16,NW,310,15.0,22.0,58,-99.99,,,-99.99,,2013-02-03 14:52:00,
2013-02-03 09:03:00,27.0,14.0,30.16,WNW,300,17.0,23.0,58,-99.99,,,-99.99,,2013-02-03 15:03:00,
2013-02-03 09:11:00,27.0,14.0,30.16,WNW,300,17.0,23.0,58,-99.99,,,-99.99,,2013-02-03 15:11:00,
2013-02-03 09:22:00,27.0,12.0,30.17,WNW,300,17.0,28.0,54,-99.99,,,-99.99,,2013-02-03 15:22:00,
2013-02-03 09:32:00,27.0,12.0,30.17,WNW,300,17.0,24.0,54,-99.99,,,-99.99,,2013-02-03 15:32:00,
2013-02-03 09:41:00,27.0,14.0,30.17,NW,310,14.0,24.0,58,-99.99,,,-99.99,,2013-02-03 15:41:00,
2013-02-03 09:52:00,28.0,12.0,30.17,WNW,300,16.0,25.0,50,-99.99,,,-99.99,,2013-02-03 15:52:00,
2013-02-03 10:02:00,28.0,12.0,30.17,WNW,300,16.0,25.0,50,-99.99,,,-99.99,,2013-02-03 16:02:00,
2013-02-03 10:11:00,28.0,12.0,30.17,WNW,300,16.0,25.0,50,-99.99,,,-99.99,,2013-02-03 16:11:00,
2013-02-03 10:22:00,28.0,14.0,30.18,WNW,300,14.0,20.0,54,-99.99,,,-99.99,,2013-02-03 16:22:00,
2013-02-03 10:32:00,28.0,14.0,30.18,WNW,300,14.0,22.0,54,-99.99,,,-99.99,,2013-02-03 16:32:00,
2013-02-03 10:42:00,28.0,14.0,30.18,WNW,300,17.0,-999.0,54,-99.99,,,-99.99,,2013-02-03 16:42:00,
2013-02-03 10:52:00,28.0,14.0,30.18,WNW,300,17.0,-999.0,54,-99.99,,,-99.99,,2013-02-03 16:52:00,
2013-02-03 11:02:00,28.0,12.0,30.19,NW,310,15.0,20.0,50,-99.99,,,-99.99,,2013-02-03 17:02:00,
2013-02-03 11:11:00,28.0,12.0,30.19,NW,310,15.0,20.0,50,-99.99,,,-99.99,,2013-02-03 17:11:00,
2013-02-03 11:21:00,28.0,12.0,30.19,NW,310,15.0,20.0,50,-99.99,,,-99.99,,2013-02-03 17:21:00,
2013-02-03 11:32:00,30.0,12.0,30.21,WNW,290,15.0,-999.0,46,-99.99,,,-99.99,,2013-02-03 17:32:00,
2013-02-03 11:42:00,30.0,12.0,30.21,WNW,300,16.0,25.0,46,-99.99,,,-99.99,,2013-02-03 17:42:00,
2013-02-03 11:52:00,30.0,12.0,30.20,WNW,290,14.0,23.0,46,-99.99,,,-99.99,,2013-02-03 17:52:00,
2013-02-03 12:03:00,30.0,14.0,30.20,NW,310,13.0,-999.0,50,-99.99,,,-99.99,,2013-02-03 18:03:00,
2013-02-03 12:11:00,30.0,14.0,30.20,NW,310,13.0,-999.0,50,-99.99,,,-99.99,,2013-02-03 18:11:00,
2013-02-03 12:23:00,30.0,12.0,30.19,WNW,300,12.0,22.0,46,-99.99,,,-99.99,,2013-02-03 18:23:00,
2013-02-03 12:32:00,32.0,12.0,30.18,NW,310,12.0,-999.0,43,-99.99,,,-99.99,,2013-02-03 18:32:00,
2013-02-03 12:42:00,32.0,12.0,30.18,NW,310,12.0,-999.0,43,-99.99,,,-99.99,,2013-02-03 18:42:00,
2013-02-03 12:52:00,32.0,12.0,30.18,NW,310,12.0,-999.0,43,-99.99,,,-99.99,,2013-02-03 18:52:00,
2013-02-03 13:02:00,32.0,12.0,30.18,NW,310,12.0,-999.0,43,-99.99,,,-99.99,,2013-02-03 19:02:00,
2013-02-03 13:11:00,32.0,12.0,30.18,NW,310,12.0,-999.0,43,-99.99,,,-99.99,,2013-02-03 19:11:00,
2013-02-03 13:22:00,32.0,14.0,30.17,WNW,290,8.0,-999.0,46,-99.99,,,-99.99,,2013-02-03 19:22:00,
2013-02-03 13:33:00,32.0,14.0,30.17,West,280,10.0,-999.0,46,-99.99,,,-99.99,,2013-02-03 19:33:00,
2013-02-03 13:42:00,32.0,14.0,30.17,WNW,300,10.0,-999.0,46,-99.99,,,-99.99,,2013-02-03 19:42:00,
2013-02-03 13:52:00,34.0,12.0,30.17,WNW,290,12.0,-999.0,40,-99.99,,,-99.99,,2013-02-03 19:52:00,
2013-02-03 14:01:00,34.0,14.0,30.16,West,280,9.0,-999.0,43,-99.99,,,-99.99,,2013-02-03 20:01:00,
2013-02-03 14:12:00,34.0,14.0,30.16,West,280,9.0,-999.0,43,-99.99,,,-99.99,,2013-02-03 20:12:00,
2013-02-03 14:21:00,34.0,12.0,30.16,WNW,290,9.0,-999.0,40,-99.99,,,-99.99,,2013-02-03 20:21:00,
2013-02-03 14:32:00,34.0,12.0,30.15,WNW,300,10.0,-999.0,40,-99.99,,,-99.99,,2013-02-03 20:32:00,
2013-02-03 14:42:00,34.0,12.0,30.15,WNW,290,9.0,-999.0,40,-99.99,,,-99.99,,2013-02-03 20:42:00,
2013-02-03 14:52:00,34.0,12.0,30.14,West,270,6.0,-999.0,40,-99.99,,,-99.99,,2013-02-03 20:52:00,
2013-02-03 15:03:00,34.0,12.0,30.14,West,270,6.0,-999.0,40,-99.99,,,-99.99,,2013-02-03 21:03:00,
2013-02-03 15:11:00,34.0,12.0,30.14,West,270,6.0,-999.0,40,-99.99,,,-99.99,,2013-02-03 21:11:00,
2013-02-03 15:21:00,34.0,12.0,30.14,West,270,6.0,-999.0,40,-99.99,,,-99.99,,2013-02-03 21:21:00,
2013-02-03 15:32:00,34.0,14.0,30.13,WSW,250,8.0,-999.0,43,-99.99,,,-99.99,,2013-02-03 21:32:00,
2013-02-03 15:42:00,34.0,12.0,30.13,WSW,240,6.0,-999.0,40,-99.99,,,-99.99,,2013-02-03 21:42:00,
2013-02-03 15:52:00,34.0,12.0,30.12,WSW,240,6.0,-999.0,40,-99.99,,,-99.99,,2013-02-03 21:52:00,
2013-02-03 16:01:00,34.0,12.0,30.12,SW,230,7.0,-999.0,40,-99.99,,,-99.99,,2013-02-03 22:01:00,
2013-02-03 16:11:00,34.0,12.0,30.12,SW,230,7.0,-999.0,40,-99.99,,,-99.99,,2013-02-03 22:11:00,
2013-02-03 16:21:00,34.0,14.0,30.11,SW,220,7.0,-999.0,43,-99.99,,,-99.99,,2013-02-03 22:21:00,
2013-02-03 16:32:00,34.0,14.0,30.10,SSW,210,7.0,-999.0,43,-99.99,,,-99.99,,2013-02-03 22:32:00,
2013-02-03 16:41:00,34.0,14.0,30.10,SSW,210,7.0,-999.0,43,-99.99,,,-99.99,,2013-02-03 22:41:00,
2013-02-03 16:52:00,34.0,14.0,30.10,SSW,210,7.0,-999.0,43,-99.99,,,-99.99,,2013-02-03 22:52:00,
2013-02-03 17:01:00,34.0,14.0,30.10,SSW,210,7.0,-999.0,43,-99.99,,,-99.99,,2013-02-03 23:01:00,
2013-02-03 17:12:00,34.0,14.0,30.10,SSW,210,7.0,-999.0,43,-99.99,,,-99.99,,2013-02-03 23:12:00,
2013-02-03 17:22:00,34.0,14.0,30.10,SSW,210,7.0,-999.0,43,-99.99,,,-99.99,,2013-02-03 23:22:00,
2013-02-03 18:02:00,28.0,14.0,30.08,South,180,5.0,-999.0,54,-99.99,,,-99.99,,2013-02-04 00:02:00,
2013-02-03 18:11:00,28.0,14.0,30.08,South,180,5.0,-999.0,54,-99.99,,,-99.99,,2013-02-04 00:11:00,
2013-02-03 18:22:00,28.0,14.0,30.08,South,180,6.0,-999.0,54,-99.99,,,-99.99,,2013-02-04 00:22:00,
2013-02-03 18:32:00,28.0,14.0,30.08,South,170,6.0,-999.0,54,-99.99,,,-99.99,,2013-02-04 00:32:00,
2013-02-03 18:41:00,28.0,12.0,30.07,SSE,160,5.0,-999.0,50,-99.99,,,-99.99,,2013-02-04 00:41:00,
2013-02-03 18:52:00,28.0,12.0,30.07,SSE,160,6.0,-999.0,50,-99.99,,,-99.99,,2013-02-04 00:52:00,
2013-02-03 19:01:00,28.0,12.0,30.06,SE,140,5.0,-999.0,50,-99.99,,,-99.99,,2013-02-04 01:01:00,
2013-02-03 19:11:00,28.0,12.0,30.06,SE,140,5.0,-999.0,50,-99.99,,,-99.99,,2013-02-04 01:11:00,
2013-02-03 19:21:00,28.0,12.0,30.06,SSE,150,5.0,-999.0,50,-99.99,,,-99.99,,2013-02-04 01:21:00,
2013-02-03 19:31:00,28.0,12.0,30.06,SSE,150,5.0,-999.0,50,-99.99,,,-99.99,,2013-02-04 01:31:00,
2013-02-03 19:41:00,28.0,12.0,30.05,SE,140,5.0,-999.0,50,-99.99,,,-99.99,,2013-02-04 01:41:00,
2013-02-03 19:52:00,28.0,12.0,30.05,SSE,150,6.0,-999.0,50,-99.99,,,-99.99,,2013-02-04 01:52:00,
2013-02-03 20:02:00,28.0,12.0,30.04,SSE,150,6.0,-999.0,50,-99.99,,,-99.99,,2013-02-04 02:02:00,
2013-02-03 20:11:00,28.0,12.0,30.04,SSE,150,6.0,-999.0,50,-99.99,,,-99.99,,2013-02-04 02:11:00,
2013-02-03 20:21:00,28.0,12.0,30.03,SE,140,6.0,-999.0,50,-99.99,,,-99.99,,2013-02-04 02:21:00,
2013-02-03 20:31:00,28.0,12.0,30.03,SE,140,6.0,-999.0,50,-99.99,,,-99.99,,2013-02-04 02:31:00,
2013-02-03 20:41:00,28.0,12.0,30.03,SE,130,5.0,-999.0,50,-99.99,,,-99.99,,2013-02-04 02:41:00,
2013-02-03 20:52:00,28.0,12.0,30.03,SE,140,6.0,-999.0,50,-99.99,,,-99.99,,2013-02-04 02:52:00,
2013-02-03 21:02:00,28.0,12.0,30.03,SSE,150,7.0,-999.0,50,-99.99,,,-99.99,,2013-02-04 03:02:00,
2013-02-03 21:11:00,28.0,12.0,30.03,SSE,150,7.0,-999.0,50,-99.99,,,-99.99,,2013-02-04 03:11:00,
2013-02-03 21:21:00,28.0,12.0,30.01,SSE,150,8.0,-999.0,50,-99.99,,,-99.99,,2013-02-04 03:21:00,
2013-02-03 21:32:00,28.0,12.0,30.02,SSE,150,9.0,-999.0,50,-99.99,,,-99.99,,2013-02-04 03:32:00,
2013-02-03 21:41:00,28.0,12.0,30.01,SE,140,8.0,-999.0,50,-99.99,,,-99.99,,2013-02-04 03:41:00,
2013-02-03 21:52:00,28.0,10.0,30.01,SE,140,7.0,-999.0,46,-99.99,,,-99.99,,2013-02-04 03:52:00,
2013-02-03 22:01:00,28.0,10.0,30.00,SE,140,7.0,-999.0,46,-99.99,,,-99.99,,2013-02-04 04:01:00,
2013-02-03 22:11:00,28.0,10.0,30.00,SE,140,7.0,-999.0,46,-99.99,,,-99.99,,2013-02-04 04:11:00,
2013-02-03 22:21:00,28.0,10.0,29.98,SSE,150,8.0,-999.0,46,-99.99,,,-99.99,,2013-02-04 04:21:00,
2013-02-03 22:32:00,28.0,10.0,29.98,SE,140,8.0,-999.0,46,-99.99,,,-99.99,,2013-02-04 04:32:00,
2013-02-03 22:41:00,28.0,10.0,29.98,SE,140,8.0,-999.0,46,-99.99,,,-99.99,,2013-02-04 04:41:00,
2013-02-03 22:52:00,28.0,10.0,29.97,SE,140,7.0,-999.0,46,-99.99,,,-99.99,,2013-02-04 04:52:00,
2013-02-03 23:03:00,28.0,10.0,29.97,SE,140,7.0,-999.0,46,-99.99,,,-99.99,,2013-02-04 05:03:00,
2013-02-03 23:11:00,28.0,10.0,29.97,SE,140,7.0,-999.0,46,-99.99,,,-99.99,,2013-02-04 05:11:00,
2013-02-03 23:22:00,28.0,10.0,29.96,SSE,150,9.0,-999.0,46,-99.99,,,-99.99,,2013-02-04 05:22:00,
2013-02-03 23:33:00,28.0,10.0,29.96,SSE,150,8.0,-999.0,46,-99.99,,,-99.99,,2013-02-04 05:33:00,
2013-02-03 23:42:00,28.0,10.0,29.95,SSE,150,7.0,-999.0,46,-99.99,,,-99.99,,2013-02-04 05:42:00,
2013-02-03 23:52:00,28.0,10.0,29.95,SSE,150,8.0,-999.0,46,-99.99,,,-99.99,,2013-02-04 05:52:00,